Data for 07/24/2016

Time Sea-Level Adjusted Pressure Absolute Pressure Temperature Relative Humidity Dew Point   
(mb) (inHg) (mb) (inHg) (C) (F) (%) (C) (F)
00:05 1023 30.21 852 25.16 14.9 58.8 49 4.4 40
00:10 1023 30.21 852 25.16 14.6 58.3 49 4 39.2
00:15 1023 30.21 852 25.16 14.7 58.5 48 3.8 38.8
00:20 1023 30.21 852 25.16 14.8 58.7 47 3.8 38.9
00:25 1023 30.21 852 25.16 14.8 58.6 48 3.8 38.9
00:30 1023 30.21 852 25.16 14.6 58.3 47 3.6 38.4
00:35 1023 30.21 852 25.16 14.7 58.5 51 4.9 40.8
00:40 1023 30.21 852 25.16 14.6 58.3 49 4 39.1
00:45 1023 30.21 852 25.16 14.5 58 49 4 39.1
00:50 1023 30.21 852 25.16 14.4 57.9 49 3.9 39
00:55 1023 30.21 852 25.16 14.3 57.7 49 3.6 38.6
01:00 1023 30.21 852 25.16 14 57.3 50 3.9 39.1
01:05 1023 30.21 852 25.16 13.7 56.7 51 3.8 38.9
01:10 1023 30.21 852 25.16 13.6 56.4 52 3.9 39
01:15 1023 30.21 852 25.16 13.4 56.1 55 4.5 40.1
01:20 1023 30.21 852 25.16 12.7 54.9 56 4.3 39.8
01:25 1023 30.21 852 25.16 12.7 54.9 54 3.6 38.5
01:30 1023 30.21 852 25.16 13.1 55.5 52 3.5 38.2
01:35 1023 30.21 852 25.16 13.5 56.2 50 3.2 37.8
01:40 1023 30.21 852 25.16 13.7 56.7 50 3.4 38.2
01:45 1023 30.21 852 25.16 13.7 56.6 50 3.5 38.3
01:50 1023 30.21 852 25.16 13.6 56.5 50 3.3 38
01:55 1023 30.21 852 25.16 13.7 56.6 49 3.2 37.8
02:00 1023 30.21 852 25.16 13.7 56.6 49 3.2 37.8
02:05 1023 30.21 852 25.16 13.6 56.5 50 3.3 38
02:10 1023 30.21 852 25.16 13.5 56.3 50 3.3 38
02:15 1023 30.21 852 25.16 13.4 56.1 50 3.4 38.1
02:20 1023 30.21 852 25.16 13.4 56.1 49 2.9 37.2
02:25 1023 30.21 852 25.16 13.6 56.5 49 3.1 37.6
02:30 1023 30.21 852 25.16 13.5 56.3 49 3.2 37.7
02:35 1023 30.21 852 25.16 13.6 56.4 49 3.1 37.5
02:40 1023 30.21 852 25.16 13.5 56.2 51 3.5 38.2
02:45 1023 30.21 852 25.16 13.1 55.6 50 3.1 37.6
02:50 1023 30.21 852 25.16 13.2 55.8 50 3.2 37.7
02:55 1023 30.21 852 25.16 13.4 56.2 49 3 37.3
03:00 1023 30.21 852 25.16 13.4 56.1 49 3.1 37.5
03:05 1023 30.21 852 25.16 13.3 55.9 48 2.6 36.8
03:10 1023 30.21 852 25.16 13.2 55.8 49 2.7 36.9
03:15 1023 30.21 852 25.16 13.2 55.7 49 2.8 37
03:20 1023 30.21 852 25.16 13.3 55.9 49 2.8 37
03:25 1023 30.21 852 25.16 13.2 55.7 49 2.8 37.1
03:30 1023 30.21 852 25.16 12.9 55.2 50 2.7 36.9
03:35 1023 30.21 852 25.16 12.9 55.2 49 2.6 36.6
03:40 1023 30.21 852 25.16 12.8 55.1 51 2.9 37.3
03:45 1023 30.21 852 25.16 12.5 54.5 52 2.9 37.2
03:50 1023 30.21 852 25.16 12.7 54.8 49 2.4 36.3
03:55 1023 30.21 852 25.16 12.8 55.1 50 2.7 36.8
04:00 1023 30.21 852 25.16 12.7 54.8 51 3 37.3
04:05 1023 30.21 852 25.16 12.5 54.5 52 3 37.5
04:10 1023 30.21 852 25.16 12.2 53.9 53 3 37.4
04:15 1023 30.21 852 25.16 12.1 53.8 53 2.8 37.1
04:20 1023 30.21 852 25.16 12.2 54 51 2.5 36.6
04:25 1023 30.21 852 25.16 12.3 54.1 52 2.7 36.8
04:30 1023 30.21 852 25.16 12.2 53.9 52 2.7 36.8
04:35 1023 30.21 852 25.16 12.2 53.9 52 2.6 36.6
04:40 1023 30.21 852 25.16 12.1 53.8 52 2.5 36.5
04:45 1023 30.21 852 25.16 11.7 53.1 54 2.8 37.1
04:50 1023 30.21 852 25.16 11.3 52.3 54 2.3 36.2
04:55 1023 30.21 852 25.16 11.5 52.7 53 2.3 36.1
05:00 1023 30.21 852 25.16 11.7 53.1 52 2.3 36.2
05:05 1023 30.21 853 25.19 11.8 53.2 51 2 35.7
05:10 1023 30.21 853 25.19 12 53.6 52 2.4 36.3
05:15 1023 30.21 853 25.19 11.9 53.3 52 2.3 36.2
05:20 1023 30.21 853 25.19 11.9 53.3 53 2.6 36.7
05:25 1023 30.21 853 25.19 11.9 53.3 53 2.8 37
05:30 1023 30.21 853 25.19 11.7 53.1 54 2.8 37.1
05:35 1023 30.21 853 25.19 11.7 53 54 2.7 36.9
05:40 1024 30.24 853 25.19 11.8 53.2 54 2.8 37
05:45 1024 30.24 853 25.19 11.7 53 55 3 37.4
05:50 1024 30.24 853 25.19 11.6 52.9 55 2.8 37
05:55 1024 30.24 853 25.19 11.9 53.4 52 2.5 36.5
06:00 1024 30.24 853 25.19 12.1 53.8 51 2.3 36.1
06:05 1024 30.24 853 25.19 12.4 54.4 49 2.2 35.9
06:10 1024 30.24 853 25.19 12.7 54.9 49 2.2 36
06:15 1024 30.24 853 25.19 13 55.4 49 2.5 36.5
06:20 1024 30.24 853 25.19 13.1 55.5 49 2.7 36.8
06:25 1024 30.24 853 25.19 13.1 55.6 49 2.7 36.8
06:30 1024 30.24 853 25.19 13.3 56 46 2.1 35.9
06:35 1024 30.24 853 25.19 13.8 56.9 45 2.3 36.2
06:40 1024 30.24 853 25.19 13.9 57.1 46 2.7 36.8
06:45 1024 30.24 853 25.19 14.6 58.2 45 2.8 37.1
06:50 1024 30.24 853 25.19 14.7 58.4 44 2.7 36.9
06:55 1024 30.24 853 25.19 14.7 58.4 45 2.9 37.1
07:00 1024 30.24 853 25.19 14.8 58.7 44 2.8 37.1
07:05 1024 30.24 853 25.19 15.1 59.2 44 2.9 37.2
07:10 1024 30.24 853 25.19 15.8 60.4 43 3.2 37.8
07:15 1024 30.24 853 25.19 16.1 60.9 44 3.8 38.8
07:20 1024 30.24 853 25.19 16 60.8 42 3.2 37.8
07:25 1024 30.24 853 25.19 16.3 61.4 41 3.1 37.5
07:30 1024 30.24 853 25.19 16.7 62 39 2.8 37.1
07:35 1024 30.24 853 25.19 17.5 63.5 36 2.4 36.3
07:40 1024 30.24 853 25.19 18.1 64.5 35 2.5 36.5
07:45 1024 30.24 853 25.19 18.6 65.5 34 2.6 36.6
07:50 1024 30.24 853 25.19 18.9 66.1 33 2.5 36.5
07:55 1024 30.24 853 25.19 18.7 65.7 34 2.6 36.7
08:00 1024 30.24 853 25.19 18.2 64.7 35 2.7 36.9
08:05 1024 30.24 853 25.19 18.5 65.4 35 2.9 37.2
08:10 1024 30.24 853 25.19 18.9 66 33 2.6 36.7
08:15 1024 30.24 853 25.19 19.4 66.9 33 2.8 37
08:20 1024 30.24 853 25.19 19.8 67.6 32 2.8 37.1
08:25 1024 30.24 853 25.19 20.3 68.5 31 2.9 37.2
08:30 1024 30.24 853 25.19 20.1 68.2 32 3.2 37.8
08:35 1024 30.24 853 25.19 19.9 67.9 32 3 37.4
08:40 1024 30.24 853 25.19 19.6 67.2 33 3 37.5
08:45 1024 30.24 853 25.19 19.5 67 33 2.7 36.9
08:50 1024 30.24 853 25.19 20.4 68.7 29 2.1 35.7
08:55 1024 30.24 853 25.19 20 68 31 2.6 36.6
09:00 1024 30.24 853 25.19 19.9 67.7 31 2.4 36.3
09:05 1024 30.24 853 25.19 20.5 68.9 30 2.3 36.1
09:10 1024 30.24 853 25.19 21 69.8 29 2.3 36.1
09:15 1024 30.24 853 25.19 21.4 70.5 29 2.7 36.8
09:20 1024 30.24 853 25.19 21.6 70.9 29 3 37.4
09:25 1024 30.24 853 25.19 21.1 70 29 2.6 36.7
09:30 1024 30.24 853 25.19 21.7 71.1 28 2.6 36.7
09:35 1024 30.24 853 25.19 22 71.6 27 2.4 36.3
09:40 1024 30.24 853 25.19 21.9 71.4 28 2.6 36.7
09:45 1024 30.24 853 25.19 21.8 71.3 29 3.1 37.6
09:50 1024 30.24 853 25.19 21.8 71.2 29 3.2 37.7
09:55 1023 30.21 853 25.19 22.3 72.2 27 2.7 36.8
10:00 1023 30.21 853 25.19 22.4 72.4 27 2.6 36.7
10:05 1023 30.21 853 25.19 23 73.4 24 1.6 34.9
10:10 1023 30.21 853 25.19 22.9 73.2 24 1.3 34.3
10:15 1023 30.21 853 25.19 23.4 74 23 1.3 34.3
10:20 1023 30.21 853 25.19 23.5 74.2 23 1.4 34.5
10:25 1023 30.21 853 25.19 23.8 74.8 23 1.8 35.3
10:30 1023 30.21 852 25.16 23.7 74.6 23 1.4 34.5
10:35 1023 30.21 852 25.16 23.8 74.8 23 1.9 35.5
10:40 1023 30.21 852 25.16 23.8 74.9 24 2.1 35.7
10:45 1023 30.21 852 25.16 24.2 75.5 22 1.5 34.8
10:50 1023 30.21 852 25.16 24 75.2 23 2.1 35.7
10:55 1023 30.21 852 25.16 24.1 75.4 23 1.7 35.1
11:00 1023 30.21 852 25.16 23.4 74.2 24 1.9 35.5
11:05 1023 30.21 852 25.16 23.9 75 23 2 35.5
11:10 1023 30.21 852 25.16 23.3 73.9 26 2.9 37.2
11:15 1023 30.21 852 25.16 23 73.3 25 2 35.5
11:20 1023 30.21 852 25.16 23.6 74.5 24 1.8 35.3
11:25 1023 30.21 852 25.16 24.4 75.9 23 1.9 35.4
11:30 1023 30.21 852 25.16 24.7 76.4 22 2 35.6
11:35 1023 30.21 852 25.16 25 77 22 1.9 35.5
11:40 1023 30.21 852 25.16 24 75.1 25 3 37.3
11:45 1023 30.21 852 25.16 23.8 74.8 24 2.1 35.7
11:50 1023 30.21 852 25.16 24.9 76.7 22 2 35.6
11:55 1023 30.21 852 25.16 25 76.9 23 2.8 37
12:00 1023 30.21 852 25.16 25.4 77.7 23 2.8 37
12:05 1023 30.21 852 25.16 26.1 78.9 21 2.4 36.3
12:10 1023 30.21 852 25.16 26.1 79 21 2.5 36.5
12:15 1022 30.18 852 25.16 26 78.8 22 2.8 37
12:20 1022 30.18 852 25.16 25.8 78.4 21 2 35.5
12:25 1022 30.18 852 25.16 25.6 78.2 21 1.9 35.4
12:30 1022 30.18 852 25.16 26.3 79.3 20 1.7 35.1
12:35 1022 30.18 851 25.13 26.2 79.2 21 2.2 35.9
12:40 1022 30.18 851 25.13 25.7 78.2 21 2 35.5
12:45 1022 30.18 851 25.13 25.4 77.7 22 2.3 36.2
12:50 1022 30.18 851 25.13 26 78.8 21 2.1 35.8
12:55 1022 30.18 851 25.13 26.1 79 21 2.1 35.9
13:00 1022 30.18 851 25.13 26.8 80.2 20 2.2 35.9
13:05 1022 30.18 851 25.13 27.1 80.7 19 2 35.6
13:10 1022 30.18 851 25.13 26.8 80.2 20 2.6 36.6
13:15 1022 30.18 851 25.13 26.9 80.5 20 2.7 36.8
13:20 1022 30.18 851 25.13 26.5 79.7 20 2.2 36
13:25 1022 30.18 851 25.13 26.6 80 20 1.8 35.2
13:30 1022 30.18 851 25.13 26.9 80.4 20 2.1 35.7
13:35 1022 30.18 851 25.13 27.1 80.7 20 2.1 35.8
13:40 1022 30.18 851 25.13 27 80.7 19 1.9 35.5
13:45 1022 30.18 851 25.13 27.2 81 18 1.3 34.4
13:50 1022 30.18 851 25.13 27.2 81 19 2.1 35.8
13:55 1022 30.18 851 25.13 27.7 81.8 18 1.8 35.3
14:00 1022 30.18 851 25.13 28.1 82.5 19 2.2 36
14:05 1022 30.18 851 25.13 27.8 82.1 18 2 35.5
14:10 1022 30.18 851 25.13 27.8 82 17 1.2 34.1
14:15 1022 30.18 851 25.13 27.7 81.8 19 2 35.6
14:20 1022 30.18 851 25.13 27.7 81.8 18 1.7 35.1
14:25 1022 30.18 851 25.13 27.6 81.7 18 1.7 35
14:30 1021 30.15 851 25.13 27.8 82 18 1.4 34.5
14:35 1021 30.15 851 25.13 28.4 83.2 18 2.4 36.3
14:40 1021 30.15 851 25.13 28.3 83 17 1.5 34.8
14:45 1021 30.15 851 25.13 27.6 81.7 17 0.7 33.3
14:50 1021 30.15 851 25.13 28 82.5 17 0.8 33.4
14:55 1021 30.15 850 25.1 28.8 83.9 15 0.3 32.6
15:00 1021 30.15 850 25.1 28.4 83.2 18 2.2 35.9
15:05 1021 30.15 850 25.1 27.9 82.2 17 1.1 34
15:10 1021 30.15 850 25.1 28.2 82.8 16 0 32
15:15 1021 30.15 850 25.1 28.1 82.6 17 1 33.8
15:20 1021 30.15 850 25.1 28.1 82.6 17 0.9 33.6
15:25 1021 30.15 850 25.1 28.5 83.2 16 0.4 32.7
15:30 1021 30.15 850 25.1 28.6 83.5 17 1.8 35.2
15:35 1021 30.15 850 25.1 29.1 84.3 17 1.5 34.8
15:40 1021 30.15 850 25.1 28.7 83.6 17 1.7 35
15:45 1021 30.15 850 25.1 28.5 83.4 15 0.1 32.2
15:50 1021 30.15 850 25.1 28.9 84.1 17 1.7 35
15:55 1021 30.15 850 25.1 29.4 84.9 16 1.1 34
16:00 1021 30.15 850 25.1 29.1 84.4 17 1.5 34.8
16:05 1021 30.15 850 25.1 29 84.2 16 0.6 33.1
16:10 1021 30.15 850 25.1 29 84.2 16 1 33.8
16:15 1021 30.15 850 25.1 29.1 84.3 15 0.2 32.4
16:20 1021 30.15 850 25.1 28.9 84 16 0.7 33.3
16:25 1021 30.15 850 25.1 28.8 83.8 16 0.5 33
16:30 1021 30.15 850 25.1 28.6 83.5 15 0.1 32.2
16:35 1021 30.15 850 25.1 28.9 84 15 0.1 32.2
16:40 1021 30.15 850 25.1 29 84.1 15 0.5 32.8
16:45 1021 30.15 850 25.1 29 84.3 16 0.6 33.1
16:50 1021 30.15 850 25.1 29.1 84.3 16 0.6 33.1
16:55 1021 30.15 850 25.1 29.2 84.6 15 0.2 32.3
17:00 1021 30.15 850 25.1 29.4 85 15 0.6 33.1
17:05 1021 30.15 850 25.1 29.1 84.5 16 0.8 33.4
17:10 1021 30.15 850 25.1 28 82.3 18 1.4 34.5
17:15 1020 30.12 850 25.1 28.1 82.5 17 1.2 34.2
17:20 1020 30.12 850 25.1 28 82.3 17 0.6 33
17:25 1020 30.12 850 25.1 28.6 83.5 15 0.2 32.3
17:30 1020 30.12 850 25.1 28.6 83.5 17 1.3 34.3
17:35 1020 30.12 850 25.1 28.2 82.8 15 -0.1 31.8
17:40 1020 30.12 850 25.1 28.3 82.9 15 -0 31.9
17:45 1020 30.12 849 25.07 28.3 83 15 -0.3 31.4
17:50 1020 30.12 849 25.07 28.6 83.5 15 0.1 32.1
17:55 1020 30.12 849 25.07 28.5 83.3 15 -0.1 31.8
18:00 1020 30.12 849 25.07 27.7 81.9 16 -0.1 31.8
18:05 1020 30.12 849 25.07 27.6 81.8 16 0.1 32.1
18:10 1020 30.12 849 25.07 27.7 81.8 16 0.2 32.3
18:15 1020 30.12 850 25.1 27.6 81.6 17 0.7 33.2
18:20 1020 30.12 849 25.07 27.1 80.8 18 0.8 33.4
18:25 1020 30.12 849 25.07 26.9 80.4 17 0.2 32.4
18:30 1020 30.12 849 25.07 26.9 80.3 18 0.8 33.4
18:35 1020 30.12 849 25.07 26.8 80.3 17 0.1 32.3
18:40 1020 30.12 849 25.07 26.8 80.2 18 0.9 33.7
18:45 1020 30.12 849 25.07 26.8 80.2 18 0.4 32.7
18:50 1020 30.12 849 25.07 26.7 80.1 18 0.3 32.6
18:55 1020 30.12 849 25.07 26.8 80.2 17 0 32.1
19:00 1020 30.12 849 25.07 26.7 80.1 19 1.7 35
19:05 1020 30.12 849 25.07 26.5 79.8 20 2.3 36.1
19:10 1020 30.12 849 25.07 26.3 79.4 20 1.5 34.7
19:15 1020 30.12 849 25.07 26.2 79.2 19 1.4 34.5
19:20 1020 30.12 849 25.07 26.2 79.2 20 1.9 35.4
19:25 1020 30.12 849 25.07 26.2 79.1 24 4 39.2
19:30 1020 30.12 849 25.07 25.9 78.7 22 3.1 37.5
19:35 1020 30.12 849 25.07 25.6 78.1 24 3.6 38.5
19:40 1020 30.12 849 25.07 25.4 77.8 24 3.6 38.5
19:45 1020 30.12 849 25.07 25.3 77.5 25 4.2 39.6
19:50 1020 30.12 849 25.07 25 76.9 25 3.7 38.7
19:55 1020 30.12 849 25.07 24.8 76.6 27 4.9 40.8
20:00 1020 30.12 849 25.07 24.5 76.1 32 7.1 44.8
20:05 1020 30.12 849 25.07 24.1 75.3 31 6.2 43.2
20:10 1020 30.12 849 25.07 23.4 74.1 33 6.3 43.3
20:15 1020 30.12 849 25.07 23.1 73.6 34 6.4 43.5
20:20 1020 30.12 849 25.07 22.5 72.4 38 7.6 45.7
20:25 1020 30.12 849 25.07 21.6 70.9 37 6.5 43.7
20:30 1020 30.12 850 25.1 21.1 70 41 7.4 45.3
20:35 1020 30.12 850 25.1 20.7 69.3 40 6.8 44.3
20:40 1020 30.12 850 25.1 20.6 69 37 5.5 41.9
20:45 1020 30.12 850 25.1 20.7 69.3 33 4.1 39.4
20:50 1021 30.15 850 25.1 20.8 69.4 33 3.9 39.1
20:55 1021 30.15 850 25.1 20.4 68.7 34 4.1 39.3
21:00 1021 30.15 850 25.1 20 68.1 35 4.1 39.4
21:05 1021 30.15 850 25.1 19.6 67.3 35 3.8 38.8
21:10 1021 30.15 850 25.1 19.5 67.2 35 3.8 38.8
21:15 1021 30.15 850 25.1 19.4 66.9 35 3.8 38.8
21:20 1021 30.15 850 25.1 19.5 67 34 3.2 37.7
21:25 1021 30.15 850 25.1 19.6 67.3 33 3.1 37.7
21:30 1021 30.15 850 25.1 19.8 67.7 33 3.4 38.1
21:35 1021 30.15 850 25.1 19.6 67.2 36 4.1 39.5
21:40 1021 30.15 850 25.1 19.3 66.8 36 4 39.2
21:45 1021 30.15 850 25.1 19.1 66.3 36 3.9 39
21:50 1021 30.15 850 25.1 18.8 65.9 36 3.5 38.4
21:55 1021 30.15 850 25.1 18.7 65.6 37 3.6 38.6
22:00 1021 30.15 850 25.1 18.7 65.6 35 3.2 37.7
22:05 1021 30.15 850 25.1 18.7 65.6 36 3.3 38
22:10 1021 30.15 850 25.1 18.8 65.8 35 3.2 37.7
22:15 1021 30.15 850 25.1 18.7 65.7 36 3.4 38.1
22:20 1021 30.15 850 25.1 18.7 65.6 35 2.9 37.2
22:25 1021 30.15 850 25.1 18.6 65.5 37 3.7 38.7
22:30 1021 30.15 850 25.1 18.5 65.3 34 2.6 36.6
22:35 1021 30.15 850 25.1 18.6 65.4 38 4 39.3
22:40 1021 30.15 850 25.1 18.5 65.3 35 3 37.4
22:45 1021 30.15 850 25.1 18.4 65 35 2.9 37.3
22:50 1021 30.15 850 25.1 18.5 65.2 34 2.4 36.2
22:55 1021 30.15 850 25.1 18.6 65.5 35 2.8 37.1
23:00 1021 30.15 850 25.1 18.5 65.2 35 2.8 37.1
23:05 1021 30.15 850 25.1 18.4 65.1 34 2.2 36
23:10 1021 30.15 850 25.1 18.6 65.4 37 3.8 38.8
23:15 1021 30.15 850 25.1 18.9 66 32 1.8 35.3
23:20 1021 30.15 850 25.1 19 66.2 32 2.2 36
23:25 1021 30.15 850 25.1 18.9 66 32 2 35.6
23:30 1021 30.15 850 25.1 18.8 65.8 33 2.2 35.9
23:35 1021 30.15 850 25.1 18.5 65.2 33 2.2 35.9
23:40 1021 30.15 850 25.1 18.2 64.7 34 2.2 36
23:45 1021 30.15 850 25.1 18 64.3 34 1.9 35.3
23:50 1021 30.15 850 25.1 18.1 64.5 34 2.1 35.8
23:55 1021 30.15 850 25.1 18 64.4 34 1.9 35.5
24:00 1021 30.15 850 25.1 18.2 64.7 32 1.4 34.6